createdAt,value
2018-08-10T00:00:24.747Z,100222.02
2018-08-10T00:02:53.337Z,100226.36
2018-08-10T00:05:21.870Z,100226.71
2018-08-10T00:07:50.214Z,100224.23
2018-08-10T00:10:18.802Z,100226.87
2018-08-10T00:12:47.751Z,100226.01
2018-08-10T00:15:17.507Z,100231.46
2018-08-10T00:17:45.949Z,100243.90
2018-08-10T00:20:15.584Z,100246.50
2018-08-10T00:22:44.471Z,100249.52
2018-08-10T00:25:16.426Z,100251.34
2018-08-10T00:27:44.917Z,100251.05
2018-08-10T00:30:16.209Z,100257.18
2018-08-10T00:32:45.782Z,100254.63
2018-08-10T00:35:14.076Z,100256.11
2018-08-10T00:37:43.398Z,100258.41
2018-08-10T00:40:26.622Z,100264.88
2018-08-10T00:42:54.966Z,100267.19
2018-08-10T00:45:23.360Z,100269.16
2018-08-10T00:47:51.784Z,100270.50
2018-08-10T00:50:20.620Z,100270.42
2018-08-10T00:52:49.002Z,100278.10
2018-08-10T00:55:18.266Z,100289.50
2018-08-10T00:57:48.112Z,100294.31
2018-08-10T01:00:22.524Z,100293.03
2018-08-10T01:02:51.671Z,100306.42
2018-08-10T01:05:19.898Z,100306.31
2018-08-10T01:07:48.304Z,100323.88
2018-08-10T01:10:18.874Z,100320.47
2018-08-10T01:12:47.216Z,100323.36
2018-08-10T01:15:16.624Z,100315.97
2018-08-10T01:17:45.523Z,100318.52
2018-08-10T01:20:16.392Z,100324.65
2018-08-10T01:22:50.446Z,100318.94
2018-08-10T01:25:19.952Z,100326.20
2018-08-10T01:27:53.937Z,100337.42
2018-08-10T01:30:22.271Z,100334.95
2018-08-10T01:32:51.333Z,100339.38
2018-08-10T01:35:20.194Z,100334.08
2018-08-10T01:37:48.324Z,100335.53
2018-08-10T01:40:17.703Z,100332.77
2018-08-10T01:42:46.053Z,100341.03
2018-08-10T01:45:14.493Z,100344.95
2018-08-10T01:47:42.874Z,100343.20
2018-08-10T01:50:11.267Z,100342.03
2018-08-10T01:52:39.633Z,100354.53
2018-08-10T01:55:08.718Z,100351.44
2018-08-10T01:57:37.615Z,100358.42
2018-08-10T02:00:07.255Z,100360.87
2018-08-10T02:02:35.795Z,100365.92
2018-08-10T02:05:05.165Z,100355.47
2018-08-10T02:07:37.506Z,100370.17
2018-08-10T02:10:10.561Z,100366.17
2018-08-10T02:12:39.562Z,100367.95
2018-08-10T02:15:11.720Z,100373.03
2018-08-10T02:17:40.053Z,100375.14
2018-08-10T02:20:11.201Z,100370.46
2018-08-10T02:22:39.509Z,100368.66
2018-08-10T02:25:09.668Z,100372.40
2018-08-10T02:27:38.070Z,100367.02
2018-08-10T02:30:08.974Z,100368.30
2018-08-10T02:32:37.639Z,100364.81
2018-08-10T02:35:06.212Z,100363.95
2018-08-10T02:37:34.456Z,100370.66
2018-08-10T02:40:02.909Z,100372.86
2018-08-10T02:42:32.427Z,100376.13
2018-08-10T02:45:00.656Z,100380.50
2018-08-10T02:47:33.791Z,100392.19
2018-08-10T02:50:02.230Z,100389.77
2018-08-10T02:52:30.502Z,100393.21
2018-08-10T02:54:58.728Z,100394.75
2018-08-10T02:57:27.091Z,100394.75
2018-08-10T02:59:55.364Z,100404.97
2018-08-10T03:02:23.556Z,100400.70
2018-08-10T03:04:51.827Z,100404.31
2018-08-10T03:07:20.052Z,100400.56
2018-08-10T03:09:48.300Z,100407.94
2018-08-10T03:12:16.542Z,100414.88
2018-08-10T03:14:44.838Z,100418.23
2018-08-10T03:17:13.095Z,100425.89
2018-08-10T03:19:41.272Z,100426.49
2018-08-10T03:22:09.584Z,100427.19
2018-08-10T03:24:37.955Z,100438.27
2018-08-10T03:27:07.867Z,100438.25
2018-08-10T03:29:36.590Z,100435.86
2018-08-10T03:32:05.434Z,100444.13
2018-08-10T03:34:33.773Z,100442.23
2018-08-10T03:37:02.006Z,100452.06
2018-08-10T03:39:30.207Z,100460.89
2018-08-10T03:41:58.379Z,100463.27
2018-08-10T03:44:26.672Z,100461.79
2018-08-10T03:46:55.550Z,100468.94
2018-08-10T03:49:23.852Z,100470.31
2018-08-10T03:51:52.280Z,100479.41
2018-08-10T03:54:26.072Z,100470.36
2018-08-10T03:56:54.336Z,100478.84
2018-08-10T03:59:22.749Z,100479.39
2018-08-10T04:01:51.128Z,100487.04
2018-08-10T04:04:19.478Z,100496.06
2018-08-10T04:06:47.910Z,100486.38
2018-08-10T04:09:16.227Z,100491.98
2018-08-10T04:11:51.253Z,100494.97
2018-08-10T04:14:19.508Z,100495.10
2018-08-10T04:16:47.885Z,100495.71
2018-08-10T04:19:16.162Z,100499.24
2018-08-10T04:21:45.240Z,100500.73
2018-08-10T04:24:13.404Z,100516.56
2018-08-10T04:26:41.649Z,100524.94
2018-08-10T04:29:09.902Z,100527.97
2018-08-10T04:31:38.247Z,100530.96
2018-08-10T04:34:06.374Z,100538.32
2018-08-10T04:36:34.653Z,100540.24
2018-08-10T04:39:05.113Z,100550.52
2018-08-10T04:41:34.529Z,100550.09
2018-08-10T04:44:02.859Z,100569.77
2018-08-10T04:46:31.969Z,100574.84
2018-08-10T04:49:00.494Z,100588.09
2018-08-10T04:51:28.871Z,100585.41
2018-08-10T04:54:04.375Z,100596.80
2018-08-10T04:56:32.659Z,100599.27
2018-08-10T04:59:01.046Z,100610.25
2018-08-10T05:01:29.349Z,100610.39
2018-08-10T05:03:57.795Z,100609.11
2018-08-10T05:06:26.097Z,100610.19
2018-08-10T05:08:54.386Z,100604.66
2018-08-10T05:11:22.754Z,100609.37
2018-08-10T05:13:50.934Z,100615.20
2018-08-10T05:16:42.488Z,100622.09
2018-08-10T05:19:11.180Z,100635.75
2018-08-10T05:21:39.651Z,100632.91
2018-08-10T05:24:08.518Z,100646.44
2018-08-10T05:26:36.868Z,100646.95
2018-08-10T05:29:05.618Z,100652.48
2018-08-10T05:31:33.912Z,100662.59
2018-08-10T05:34:02.247Z,100674.99
2018-08-10T05:36:30.618Z,100671.15
2018-08-10T05:38:59.006Z,100683.28
2018-08-10T05:41:27.458Z,100679.44
2018-08-10T05:43:56.270Z,100696.14
2018-08-10T05:46:24.742Z,100705.86
2018-08-10T05:48:54.821Z,100720.43
2018-08-10T05:57:00.546Z,100735.12
2018-08-10T05:59:39.965Z,100735.63
2018-08-10T06:02:10.690Z,100740.16
2018-08-10T06:04:39.606Z,100735.82
2018-08-10T06:07:08.797Z,100741.45
2018-08-10T06:09:38.723Z,100746.27
2018-08-10T06:12:06.987Z,100740.86
2018-08-10T06:14:40.569Z,100748.33
2018-08-10T06:17:11.467Z,100746.13
2018-08-10T06:19:43.598Z,100749.28
2018-08-10T06:26:39.385Z,100751.91
2018-08-10T06:29:10.753Z,100750.28
2018-08-10T06:31:40.497Z,100765.41
2018-08-10T06:34:09.749Z,100769.25
2018-08-10T06:36:43.511Z,100775.11
2018-08-10T06:39:26.549Z,100782.46
2018-08-10T06:41:59.083Z,100783.56
2018-08-10T06:44:27.715Z,100792.91
2018-08-10T06:46:55.981Z,100786.37
2018-08-10T06:49:24.350Z,100791.12
2018-08-10T06:51:53.766Z,100785.34
2018-08-10T06:54:22.173Z,100788.83
2018-08-10T06:56:51.516Z,100802.77
2018-08-10T06:59:19.849Z,100793.89
2018-08-10T07:02:00.978Z,100808.04
2018-08-10T07:04:30.937Z,100812.89
2018-08-10T07:07:00.587Z,100813.72
2018-08-10T07:09:35.075Z,100822.12
2018-08-10T07:14:13.969Z,100819.17
2018-08-10T07:16:42.514Z,100831.06
2018-08-10T07:19:19.600Z,100827.83
2018-08-10T07:21:51.354Z,100833.94
2018-08-10T07:24:22.144Z,100833.17
2018-08-10T07:27:04.198Z,100847.36
2018-08-10T07:29:39.738Z,100848.13
2018-08-10T07:32:08.373Z,100848.27
2018-08-10T07:34:49.048Z,100856.34
2018-08-10T07:37:18.351Z,100852.92
2018-08-10T07:39:48.574Z,100859.69
2018-08-10T07:42:17.096Z,100872.94
2018-08-10T07:44:47.051Z,100870.41
2018-08-10T07:47:15.890Z,100887.70
2018-08-10T07:49:46.171Z,100882.16
2018-08-10T07:52:20.738Z,100883.32
2018-08-10T07:54:49.157Z,100895.98
2018-08-10T07:57:17.615Z,100880.47
2018-08-10T07:59:50.723Z,100883.55
2018-08-10T08:02:20.280Z,100893.70
2018-08-10T08:04:50.037Z,100892.92
2018-08-10T08:07:20.497Z,100896.66
2018-08-10T08:09:48.880Z,100901.28
2018-08-10T08:12:22.538Z,100908.80
2018-08-10T08:14:58.800Z,100906.62
2018-08-10T08:17:28.430Z,100901.79
2018-08-10T08:20:06.064Z,100896.51
2018-08-10T08:22:34.619Z,100891.30
2018-08-10T08:25:05.225Z,100902.57
2018-08-10T08:27:36.942Z,100902.56
2018-08-10T08:30:07.639Z,100896.85
2018-08-10T08:32:36.286Z,100902.66
2018-08-10T08:35:05.067Z,100911.53
2018-08-10T08:37:40.252Z,100916.89
2018-08-10T08:40:21.587Z,100919.03
2018-08-10T08:42:52.153Z,100924.36
2018-08-10T08:46:02.334Z,100926.84
2018-08-10T08:48:37.917Z,100934.58
2018-08-10T08:51:10.362Z,100940.24
2018-08-10T08:53:38.685Z,100941.41
2018-08-10T08:56:11.680Z,100947.62
2018-08-10T08:58:59.116Z,100942.30
2018-08-10T09:01:37.200Z,100950.69
2018-08-10T09:04:26.396Z,100960.26
2018-08-10T09:06:58.288Z,100959.50
2018-08-10T09:12:19.112Z,100955.70
2018-08-10T09:15:05.000Z,100954.24
2018-08-10T09:17:33.664Z,100954.48
2018-08-10T09:20:03.145Z,100954.23
2018-08-10T09:22:31.882Z,100954.64
2018-08-10T09:25:00.397Z,100943.25
2018-08-10T09:27:28.952Z,100944.98
2018-08-10T09:29:57.455Z,100935.52
2018-08-10T09:32:36.773Z,100932.80
2018-08-10T09:35:35.190Z,100935.65
2018-08-10T09:38:14.587Z,100939.02
2018-08-10T10:05:10.999Z,100944.16
2018-08-10T10:07:39.271Z,100946.30
2018-08-10T10:10:08.141Z,100955.27
2018-08-10T10:12:36.596Z,100951.63
2018-08-10T10:15:06.285Z,100952.66
2018-08-10T10:17:36.758Z,100949.48
2018-08-10T10:20:06.965Z,100949.92
2018-08-10T10:22:36.043Z,100952.91
2018-08-10T10:25:05.525Z,100956.56
2018-08-10T10:27:44.568Z,100950.81
2018-08-10T10:30:21.370Z,100953.55
2018-08-10T10:32:52.793Z,100943.05
2018-08-10T10:35:21.659Z,100942.60
2018-08-10T10:37:51.619Z,100947.82
2018-08-10T10:43:22.846Z,100957.12
2018-08-10T10:45:56.269Z,100955.27
2018-08-10T10:48:35.468Z,100964.02
2018-08-10T10:51:23.675Z,100969.62
2018-08-10T10:53:52.554Z,100954.30
2018-08-10T10:56:26.157Z,100954.16
2018-08-10T11:00:32.908Z,100948.61
2018-08-10T11:17:58.480Z,100952.69
2018-08-10T11:20:40.903Z,100946.20
2018-08-10T11:23:13.721Z,100964.78
2018-08-10T11:25:41.924Z,100956.33
2018-08-10T11:28:12.922Z,100951.56
2018-08-10T11:30:42.220Z,100951.95
2018-08-10T11:33:14.196Z,100945.58
2018-08-10T11:35:44.851Z,100943.71
2018-08-10T11:38:13.515Z,100948.36
2018-08-10T11:44:29.854Z,100946.02
2018-08-10T11:46:58.125Z,100942.56
2018-08-10T11:49:26.358Z,100936.95
2018-08-10T11:51:54.580Z,100943.56
2018-08-10T11:54:22.818Z,100950.22
2018-08-10T11:56:51.731Z,100949.59
2018-08-10T11:59:20.572Z,100957.15
2018-08-10T12:01:49.071Z,100951.95
2018-08-10T12:04:17.274Z,100958.91
2018-08-10T12:06:45.620Z,100949.14
2018-08-10T12:09:15.068Z,100954.99
2018-08-10T12:11:43.246Z,100938.58
2018-08-10T12:14:11.390Z,100939.73
2018-08-10T12:16:39.532Z,100948.78
2018-08-10T12:19:07.743Z,100951.72
2018-08-10T12:21:35.851Z,100932.59
2018-08-10T12:24:04.141Z,100945.28
2018-08-10T12:26:32.380Z,100948.31
2018-08-10T12:29:00.504Z,100942.66
2018-08-10T12:31:28.825Z,100952.59
2018-08-10T12:33:57.051Z,100938.52
2018-08-10T12:36:25.324Z,100943.68
2018-08-10T12:38:53.545Z,100941.27
2018-08-10T12:41:21.749Z,100928.13
2018-08-10T12:43:50.045Z,100925.58
2018-08-10T12:46:18.279Z,100935.00
2018-08-10T12:48:46.448Z,100939.63
2018-08-10T12:51:14.825Z,100939.42
2018-08-10T12:53:43.027Z,100940.72
2018-08-10T12:56:11.269Z,100939.66
2018-08-10T12:58:39.543Z,100940.59
2018-08-10T13:01:08.303Z,100941.97
2018-08-10T13:03:36.496Z,100929.06
2018-08-10T13:06:05.345Z,100927.89
2018-08-10T13:08:33.654Z,100934.50
2018-08-10T13:11:01.906Z,100927.93
2018-08-10T13:13:30.125Z,100924.91
2018-08-10T13:15:58.262Z,100923.33
2018-08-10T13:18:26.519Z,100916.39
2018-08-10T13:20:54.690Z,100912.66
2018-08-10T13:23:22.922Z,100920.12
2018-08-10T13:25:51.793Z,100918.06
2018-08-10T13:28:20.006Z,100912.52
2018-08-10T13:30:48.265Z,100909.84
2018-08-10T13:33:16.702Z,100921.30
2018-08-10T13:35:44.940Z,100912.84
2018-08-10T13:38:13.310Z,100913.69
2018-08-10T13:40:41.462Z,100907.01
2018-08-10T13:43:09.730Z,100922.55
2018-08-10T13:45:38.072Z,100926.44
2018-08-10T13:48:06.600Z,100915.33
2018-08-10T13:50:34.808Z,100911.10
2018-08-10T13:53:03.041Z,100917.16
2018-08-10T13:55:31.286Z,100908.84
2018-08-10T13:57:59.490Z,100900.97
2018-08-10T14:00:27.777Z,100906.41
2018-08-10T14:02:55.964Z,100908.11
2018-08-10T14:05:24.588Z,100905.52
2018-08-10T14:07:53.336Z,100888.19
2018-08-10T14:10:21.683Z,100898.15
2018-08-10T14:12:49.876Z,100897.48
2018-08-10T14:15:18.157Z,100891.50
2018-08-10T14:17:46.369Z,100897.33
2018-08-10T14:20:14.641Z,100894.78
2018-08-10T14:22:42.878Z,100890.44
2018-08-10T14:25:11.843Z,100881.09
2018-08-10T14:27:40.365Z,100891.08
2018-08-10T14:30:13.601Z,100887.19
2018-08-10T14:32:41.825Z,100882.27
2018-08-10T14:35:10.593Z,100891.52
2018-08-10T14:37:38.891Z,100878.00
2018-08-10T14:40:09.991Z,100874.24
2018-08-10T14:42:38.227Z,100876.70
2018-08-10T14:45:10.789Z,100877.37
2018-08-10T14:47:38.933Z,100883.09
2018-08-10T14:50:10.738Z,100877.13
2018-08-10T14:52:39.489Z,100870.56
2018-08-10T14:55:10.497Z,100882.73
2018-08-10T14:57:38.781Z,100884.84
2018-08-10T15:00:16.897Z,100888.55
2018-08-10T15:03:13.747Z,100886.64
2018-08-10T15:05:55.840Z,100871.67
2018-08-10T15:08:35.795Z,100873.95
2018-08-10T15:11:14.416Z,100870.58
2018-08-10T15:27:53.646Z,100873.49
2018-08-10T15:43:56.566Z,100868.84
2018-08-10T15:46:25.566Z,100863.83
2018-08-10T15:48:58.580Z,100860.30
2018-08-10T15:51:27.080Z,100867.86
2018-08-10T15:53:55.281Z,100863.10
2018-08-10T15:56:23.635Z,100861.78
2018-08-10T15:58:51.756Z,100858.30
2018-08-10T16:01:19.950Z,100865.87
2018-08-10T16:03:48.326Z,100855.91
2018-08-10T16:06:16.546Z,100855.22
2018-08-10T16:08:44.677Z,100851.95
2018-08-10T16:11:13.612Z,100852.84
2018-08-10T16:13:42.930Z,100855.13
2018-08-10T16:16:11.851Z,100856.84
2018-08-10T16:18:40.920Z,100851.28
2018-08-10T16:21:12.911Z,100843.17
2018-08-10T16:23:41.145Z,100840.84
2018-08-10T16:26:09.367Z,100842.23
2018-08-10T16:28:38.465Z,100847.78
2018-08-10T16:31:06.665Z,100841.89
2018-08-10T16:33:34.849Z,100843.78
2018-08-10T16:36:05.390Z,100847.67
2018-08-10T16:38:33.957Z,100844.34
2018-08-10T16:41:03.447Z,100847.85
2018-08-10T16:43:32.263Z,100840.63
2018-08-10T16:46:01.358Z,100844.91
2018-08-10T16:48:30.890Z,100849.34
2018-08-10T16:50:59.838Z,100840.34
2018-08-10T16:53:29.562Z,100840.98
2018-08-10T16:55:59.860Z,100840.33
2018-08-10T16:58:28.782Z,100845.89
2018-08-10T17:01:00.834Z,100845.72
2018-08-10T17:03:29.622Z,100842.80
2018-08-10T17:05:57.958Z,100841.30
2018-08-10T17:08:27.410Z,100832.20
2018-08-10T17:10:56.272Z,100832.84
2018-08-10T17:13:25.712Z,100834.73
2018-08-10T17:15:54.666Z,100835.00
2018-08-10T17:18:24.555Z,100839.54
2018-08-10T17:20:53.522Z,100839.98
2018-08-10T17:23:23.006Z,100841.66
2018-08-10T17:25:51.298Z,100841.80
2018-08-10T17:28:19.710Z,100841.48
2018-08-10T17:30:49.508Z,100844.16
2018-08-10T17:33:18.728Z,100843.16
2018-08-10T17:35:48.577Z,100839.61
2018-08-10T17:38:17.096Z,100840.37
2018-08-10T17:40:47.466Z,100840.76
2018-08-10T17:43:17.184Z,100845.75
2018-08-10T17:45:45.454Z,100843.53
2018-08-10T17:48:14.582Z,100842.62
2018-08-10T17:50:42.710Z,100844.98
2018-08-10T17:53:11.460Z,100846.74
2018-08-10T17:55:39.824Z,100852.38
2018-08-10T17:58:08.252Z,100855.16
2018-08-10T18:00:38.502Z,100861.48
2018-08-10T18:03:08.738Z,100860.35
2018-08-10T18:05:38.348Z,100866.36
2018-08-10T18:08:07.421Z,100864.77
2018-08-10T18:10:36.647Z,100870.70
2018-08-10T18:13:04.968Z,100873.78
2018-08-10T18:15:34.068Z,100876.75
2018-08-10T18:18:02.277Z,100878.15
2018-08-10T18:20:30.589Z,100883.28
2018-08-10T18:22:58.884Z,100882.18
2018-08-10T18:25:27.099Z,100888.86
2018-08-10T18:27:55.308Z,100886.47
2018-08-10T18:30:24.704Z,100888.06
2018-08-10T18:32:53.260Z,100886.33
2018-08-10T18:35:21.719Z,100885.07
2018-08-10T18:37:51.385Z,100890.10
2018-08-10T18:40:20.231Z,100892.58
2018-08-10T18:42:49.095Z,100888.84
2018-08-10T18:45:19.769Z,100889.08
2018-08-10T18:47:48.193Z,100892.47
2018-08-10T18:50:17.967Z,100893.38
2018-08-10T18:52:46.311Z,100898.88
2018-08-10T18:55:19.798Z,100894.03
2018-08-10T18:57:48.807Z,100898.11
2018-08-10T19:00:20.178Z,100896.59
2018-08-10T19:02:48.382Z,100897.17
2018-08-10T19:05:17.242Z,100893.79
2018-08-10T19:07:46.289Z,100897.71
2018-08-10T19:10:18.799Z,100901.05
2018-08-10T19:12:47.118Z,100907.52
2018-08-10T19:15:15.433Z,100903.14
2018-08-10T19:17:43.748Z,100905.38
2018-08-10T19:20:13.041Z,100905.13
2018-08-10T19:22:41.544Z,100903.53
2018-08-10T19:25:10.947Z,100905.81
2018-08-10T19:27:39.517Z,100903.89
2018-08-10T19:30:11.398Z,100903.06
2018-08-10T19:32:39.750Z,100913.48
2018-08-10T19:35:08.036Z,100911.02
2018-08-10T19:37:36.896Z,100908.36
2018-08-10T19:40:08.169Z,100907.47
2018-08-10T19:42:36.516Z,100909.42
2018-08-10T19:45:06.815Z,100910.83
2018-08-10T19:47:35.201Z,100909.73
2018-08-10T19:50:04.068Z,100916.38
2018-08-10T19:52:32.361Z,100919.18
2018-08-10T19:55:00.544Z,100909.58
2018-08-10T19:57:28.865Z,100909.63
2018-08-10T19:59:57.318Z,100914.55
2018-08-10T20:02:25.550Z,100916.21
2018-08-10T20:04:53.764Z,100920.28
2018-08-10T20:07:21.990Z,100921.13
2018-08-10T20:09:50.262Z,100917.26
2018-08-10T20:12:18.868Z,100916.22
2018-08-10T20:14:47.052Z,100918.67
2018-08-10T20:17:15.226Z,100916.80
2018-08-10T20:19:43.430Z,100917.36
2018-08-10T20:22:16.937Z,100919.58
2018-08-10T20:24:46.270Z,100917.12
2018-08-10T20:27:14.595Z,100919.63
2018-08-10T20:29:42.973Z,100916.61
2018-08-10T20:32:11.183Z,100913.84
2018-08-10T20:34:39.481Z,100918.48
2018-08-10T20:37:07.863Z,100917.91
2018-08-10T20:39:36.178Z,100922.84
2018-08-10T20:42:04.673Z,100918.72
2018-08-10T20:44:32.982Z,100920.38
2018-08-10T20:47:01.267Z,100918.45
2018-08-10T20:49:30.911Z,100924.52
2018-08-10T20:51:59.291Z,100921.46
2018-08-10T20:54:28.268Z,100923.37
2018-08-10T20:56:56.500Z,100920.64
2018-08-10T20:59:24.756Z,100916.55
2018-08-10T21:01:52.965Z,100909.70
2018-08-10T21:04:21.328Z,100912.16
2018-08-10T21:06:49.475Z,100912.94
2018-08-10T21:09:17.634Z,100913.22
2018-08-10T21:11:45.897Z,100914.90
2018-08-10T21:16:41.877Z,100913.50
2018-08-10T21:19:10.868Z,100907.20
2018-08-10T21:21:39.016Z,100911.33
2018-08-10T21:24:07.286Z,100908.86
2018-08-10T21:26:35.601Z,100907.73
2018-08-10T21:29:03.916Z,100903.89
2018-08-10T21:31:33.116Z,100903.66
2018-08-10T21:34:01.922Z,100905.84
2018-08-10T21:36:30.219Z,100909.72
2018-08-10T21:38:58.419Z,100910.84
2018-08-10T21:41:26.650Z,100908.64
2018-08-10T21:43:54.951Z,100905.10
2018-08-10T21:46:23.202Z,100906.23
2018-08-10T21:48:52.113Z,100913.88
2018-08-10T21:51:20.286Z,100916.34
2018-08-10T21:53:48.458Z,100919.88
2018-08-10T21:56:16.818Z,100917.97
2018-08-10T21:58:44.985Z,100911.11
2018-08-10T22:01:13.179Z,100919.90
2018-08-10T22:03:41.407Z,100910.59
2018-08-10T22:06:09.661Z,100922.38
2018-08-10T22:08:38.009Z,100920.17
2018-08-10T22:11:06.249Z,100927.31
2018-08-10T22:13:40.221Z,100921.56
2018-08-10T22:16:13.997Z,100926.76
2018-08-10T22:18:49.510Z,100926.77
2018-08-10T22:21:17.787Z,100926.20
2018-08-10T22:23:46.065Z,100927.03
2018-08-10T22:26:14.531Z,100930.88
2018-08-10T22:28:42.641Z,100928.42
2018-08-10T22:31:10.845Z,100931.96
2018-08-10T22:33:39.094Z,100930.33
2018-08-10T22:36:07.307Z,100931.95
2018-08-10T22:38:37.136Z,100928.69
2018-08-10T22:41:05.495Z,100922.92
2018-08-10T22:43:33.737Z,100927.83
2018-08-10T22:46:01.973Z,100928.94
2018-08-10T22:48:30.429Z,100925.08
2018-08-10T22:50:58.803Z,100921.78
2018-08-10T22:53:26.966Z,100920.41
2018-08-10T22:55:56.187Z,100926.16
2018-08-10T22:58:24.333Z,100928.37
2018-08-10T23:00:52.629Z,100923.97
2018-08-10T23:03:21.125Z,100921.46
2018-08-10T23:05:49.149Z,100923.03
2018-08-10T23:08:17.387Z,100922.42
2018-08-10T23:10:45.577Z,100925.16
2018-08-10T23:13:13.976Z,100913.38
2018-08-10T23:15:42.247Z,100914.92
2018-08-10T23:18:11.116Z,100908.61
2018-08-10T23:20:39.909Z,100905.80
2018-08-10T23:23:08.807Z,100909.34
2018-08-10T23:25:36.997Z,100902.77
2018-08-10T23:28:05.222Z,100900.33
2018-08-10T23:30:33.430Z,100894.87
2018-08-10T23:33:01.536Z,100900.11
2018-08-10T23:35:29.833Z,100893.58
2018-08-10T23:37:58.035Z,100880.98
2018-08-10T23:40:26.262Z,100882.89
2018-08-10T23:42:54.446Z,100876.85
2018-08-10T23:45:22.636Z,100877.13
2018-08-10T23:47:50.971Z,100884.27
2018-08-10T23:50:19.138Z,100883.41
2018-08-10T23:52:48.152Z,100876.55
2018-08-10T23:55:18.568Z,100881.42
2018-08-10T23:57:47.035Z,100878.13
